Thursday, August 16, 2018, 5:34 PM EDT
Back to Local

KAFN, Jaffrey Muni-silver Ranch

Location: Jaffrey, NH, United States Lat: 42.8
Local Time: 5:34 PM EDT (21:34 GMT) Lon: -72
Time Zone: US/Eastern Elev: 1040 ft

Show me the last for .
Show Decoded

2018-08-16 16:52 METAR KAFN 162052Z AUTO 30008KT 10SM CLR 29/17 A3005 RMK AO2 SLP173 T02940172
                 53002 =
2018-08-16 15:52 METAR KAFN 161952Z AUTO VRB04KT 10SM FEW055 30/17 A3005 RMK AO2 SLP172 T03000172
                 =
2018-08-16 14:52 METAR KAFN 161852Z AUTO 32009KT 290V010 10SM CLR 30/17 A3004 RMK AO2 SLP168
                 T03000172 =
2018-08-16 13:52 METAR KAFN 161752Z AUTO 31008G16KT 280V360 10SM FEW049 29/17 A3004 RMK AO2
                 SLP170 T02940172 10300 20222 56001 =
2018-08-16 12:52 METAR KAFN 161652Z AUTO 28010G15KT 10SM SCT035 SCT044 29/19 A3004 RMK AO2 SLP171
                 T02890194 =
2018-08-16 11:52 METAR KAFN 161552Z AUTO VRB06KT 10SM SCT034 BKN044 BKN055 28/20 A3004 RMK AO2
                 SLP171 T02780200 =
2018-08-16 10:52 METAR KAFN 161452Z AUTO VRB05KT 10SM FEW030 28/20 A3005 RMK AO2 SLP172 T02780200
                 51004 =
2018-08-16 09:52 METAR KAFN 161352Z AUTO 25005KT 9SM CLR 26/21 A3005 RMK AO2 SLP172 T02610206 =
2018-08-16 08:52 METAR KAFN 161252Z AUTO VRB04KT 8SM CLR 24/21 A3004 RMK AO2 SLP171 T02440211 =
2018-08-16 07:52 METAR KAFN 161152Z AUTO 21005KT 8SM CLR 22/21 A3003 RMK AO2 SLP169 T02220206
                 10233 20206 53014 =
2018-08-16 06:52 METAR KAFN 161052Z AUTO 20004KT 6SM BR CLR 21/20 A3002 RMK AO2 SLP163 T02110200
                 =
2018-08-16 05:52 METAR KAFN 160952Z AUTO 20004KT 8SM CLR 21/20 A3001 RMK AO2 SLP158 T02060200 =
2018-08-16 04:52 METAR KAFN 160852Z AUTO 23004KT 9SM CLR 22/20 A2999 RMK AO2 SLP154 T02170200
                 53006 =
2018-08-16 03:52 METAR KAFN 160752Z AUTO 21003KT 9SM CLR 21/20 A2998 RMK AO2 SLP148 T02110200 =
2018-08-16 02:52 METAR KAFN 160652Z AUTO 26005KT 10SM CLR 23/20 A2998 RMK AO2 SLP147 T02330200 =
2018-08-16 01:52 METAR KAFN 160552Z AUTO 27003KT 10SM CLR 23/21 A2997 RMK AO2 SLP146 T02280206
                 10256 20211 50007 =
2018-08-16 00:52 METAR KAFN 160452Z AUTO 00000KT 9SM CLR 21/21 A2998 RMK AO2 SLP149 T02110206
                 403000200 =
2018-08-15 23:52 METAR KAFN 160352Z AUTO 20004KT 10SM CLR 23/21 A2997 RMK AO2 SLP144 T02280206 =
2018-08-15 22:52 METAR KAFN 160252Z AUTO 19005KT 10SM CLR 23/21 A2995 RMK AO2 SLP140 T02330206
                 50007 =
2018-08-15 21:52 METAR KAFN 160152Z AUTO 17003KT 10SM CLR 23/21 A2996 RMK AO2 SLP144 T02280211 =
2018-08-15 20:52 METAR KAFN 160052Z AUTO 00000KT 10SM CLR 23/21 A2995 RMK AO2 SLP141 T02280211 =
2018-08-15 19:52 METAR KAFN 152352Z AUTO 23003KT 10SM CLR 24/22 A2993 RMK AO2 SLP134 T02390217
                 10300 20233 53012 =
2018-08-15 18:52 METAR KAFN 152252Z AUTO 00000KT 10SM CLR 25/22 A2991 RMK AO2 SLP127 T02500222 =
2018-08-15 17:52 METAR KAFN 152152Z AUTO 26003KT 10SM CLR 28/20 A2990 RMK AO2 SLP121 T02830200 =

Support USWX by starting your Amazon purchase here.